Harman, West Virginia
Current Conditions -  °F | °C
As of 12:51 PM on Thursday 30 Oct 2014 (Local Time) from KEKN Reporting Station
Overcast Overcast  
Wind Chill: 44°   Ceiling: 3400
Heat Index: 44°   Visibility: 10mi
Dew Point: 34°   Wind: 0mph
Humidity: 68%   Direction: NA
Pressure: 30.1"   Gusts: NA
Location:  38.92°N, 79.53°W
Report Text: KEKN 301651Z AUTO 00000KT 10SM OVC034 07/01 A3010 RMK AO2 SLP206 T00670011 TSNO
Loading
Personal Weather Stations






























Interactive Weather Map
Tropical Storm Tracking
New forecast layout! Learn more

10-Day Weather Forecast

Advertisements
Track Severe Weather on mobile